Time;durP1;ratioP1;P1;durP2;ratioP2;P2;SDS_P1;SDS_P2;PMS_P1;PMS_P2;Temp;Humidity;BMP_temperature;BMP_pressure;BME280_temperature;BME280_humidity;BME280_pressure;Samples;Min_cycle;Max_cycle;Signal;HPM_P1;HPM_P2
2022/01/05 00:02:36;;;;;;;4.30;3.20;;;3.50;84.30;;;;;;6280850;28;20259;-60
2022/01/05 00:05:37;;;;;;;4.73;2.77;;;3.40;83.90;;;;;;6264360;28;20377;-60
2022/01/05 00:08:38;;;;;;;3.20;2.73;;;3.40;84.10;;;;;;6279983;28;20271;-60
2022/01/05 00:11:40;;;;;;;4.90;2.93;;;3.30;84.20;;;;;;6268016;28;20232;-60
2022/01/05 00:14:41;;;;;;;4.43;2.60;;;3.30;84.20;;;;;;6286888;28;20195;-60
2022/01/05 00:17:42;;;;;;;4.03;2.77;;;3.30;84.20;;;;;;6311422;28;20256;-60
2022/01/05 00:20:43;;;;;;;3.80;2.60;;;3.30;84.20;;;;;;6308784;28;20234;-60
2022/01/05 00:23:44;;;;;;;4.30;3.20;;;3.20;84.30;;;;;;6265860;28;20196;-60
2022/01/05 00:26:45;;;;;;;3.47;2.43;;;3.20;84.40;;;;;;6304011;28;20223;-60
2022/01/05 00:29:46;;;;;;;4.83;2.77;;;3.30;84.30;;;;;;6303116;28;20200;-59
2022/01/05 00:32:47;;;;;;;2.80;2.50;;;3.10;84.30;;;;;;6280642;28;20189;-60
2022/01/05 00:35:48;;;;;;;3.70;2.40;;;3.10;84.50;;;;;;6298200;28;20203;-60
2022/01/05 00:38:49;;;;;;;3.23;2.70;;;3.10;84.70;;;;;;6321302;28;20232;-60
2022/01/05 00:41:50;;;;;;;2.60;2.13;;;3.00;85.00;;;;;;6305139;28;20218;-60
2022/01/05 00:44:51;;;;;;;4.53;2.43;;;3.00;85.10;;;;;;6304394;28;20207;-60
2022/01/05 00:47:52;;;;;;;2.70;2.10;;;3.00;85.50;;;;;;6287861;28;20238;-60
2022/01/05 00:50:52;;;;;;;2.70;2.27;;;3.10;85.80;;;;;;6280016;28;20197;-60
2022/01/05 00:53:53;;;;;;;3.60;2.97;;;3.10;85.50;;;;;;6281926;28;20199;-59
2022/01/05 00:56:54;;;;;;;4.97;2.87;;;3.20;84.60;;;;;;6271112;28;20206;-60
2022/01/05 00:59:55;;;;;;;5.53;3.00;;;3.10;84.30;;;;;;6304373;28;20189;-59
2022/01/05 01:02:56;;;;;;;3.60;2.63;;;3.10;84.40;;;;;;6287548;28;20189;-59
2022/01/05 01:06:00;;;;;;;5.33;3.07;;;3.00;84.30;;;;;;6320342;28;20250;-60
2022/01/05 01:09:01;;;;;;;3.70;2.83;;;2.90;84.50;;;;;;6296434;28;20220;-60
2022/01/05 01:12:03;;;;;;;4.70;2.57;;;2.80;84.70;;;;;;6278906;28;20709;-60
2022/01/05 01:15:06;;;;;;;2.90;2.20;;;2.80;84.90;;;;;;6264241;28;20211;-60
2022/01/05 01:18:07;;;;;;;3.03;2.73;;;2.80;84.80;;;;;;6263504;28;20205;-59
2022/01/05 01:21:09;;;;;;;5.20;3.00;;;2.80;84.90;;;;;;6253544;28;20198;-60
2022/01/05 01:24:09;;;;;;;4.93;3.10;;;2.80;85.00;;;;;;6261554;28;20197;-60
2022/01/05 01:27:10;;;;;;;4.07;3.27;;;2.80;84.80;;;;;;6288013;28;20383;-60
2022/01/05 01:30:12;;;;;;;4.00;2.67;;;2.70;85.00;;;;;;6253318;28;20193;-60
2022/01/05 01:33:12;;;;;;;3.00;2.40;;;2.80;85.00;;;;;;6269269;28;20222;-60
2022/01/05 01:36:13;;;;;;;2.33;2.13;;;2.80;85.00;;;;;;6261425;28;20200;-60
2022/01/05 01:39:14;;;;;;;5.77;2.77;;;2.70;85.10;;;;;;6296591;28;20180;-59
2022/01/05 01:42:15;;;;;;;2.77;2.20;;;2.70;85.20;;;;;;6262101;28;20193;-60
2022/01/05 01:45:16;;;;;;;4.10;3.70;;;2.70;85.30;;;;;;6293530;28;20229;-59
2022/01/05 01:48:17;;;;;;;6.60;5.97;;;2.70;85.20;;;;;;6268129;28;20317;-60
2022/01/05 01:51:18;;;;;;;5.27;3.63;;;2.70;84.80;;;;;;6270348;28;20196;-59
2022/01/05 01:54:19;;;;;;;3.83;3.27;;;2.80;84.90;;;;;;6272392;28;20198;-60
2022/01/05 01:57:21;;;;;;;5.03;3.90;;;2.70;85.10;;;;;;6287870;28;20197;-60
2022/01/05 02:00:22;;;;;;;4.53;3.43;;;2.70;85.20;;;;;;6256047;28;20194;-60
2022/01/05 02:03:23;;;;;;;6.60;3.87;;;2.80;84.90;;;;;;6257315;28;20216;-60
2022/01/05 02:06:24;;;;;;;4.43;3.73;;;2.80;84.90;;;;;;6257189;28;20217;-60
2022/01/05 02:09:25;;;;;;;6.67;5.33;;;2.70;85.10;;;;;;6274605;28;20272;-60
2022/01/05 02:12:27;;;;;;;4.60;4.03;;;2.70;84.90;;;;;;6271671;28;20255;-60
2022/01/05 02:15:28;;;;;;;3.37;2.97;;;2.80;85.00;;;;;;6263321;28;20201;-59
2022/01/05 02:21:45;;;;;;;4.00;3.33;;;2.80;85.30;;;;;;6360879;27;20706;-59
2022/01/05 02:24:47;;;;;;;2.63;2.33;;;2.90;85.20;;;;;;6329887;28;20190;-59
2022/01/05 02:27:51;;;;;;;2.93;2.63;;;2.90;84.80;;;;;;6345243;28;20232;-59
2022/01/05 02:30:52;;;;;;;3.00;2.60;;;2.80;85.10;;;;;;6325460;28;20207;-58
2022/01/05 02:33:53;;;;;;;3.53;2.73;;;2.80;85.30;;;;;;6367560;28;20191;-58
2022/01/05 02:36:54;;;;;;;4.43;2.20;;;2.80;85.50;;;;;;6315715;28;20198;-59
2022/01/05 02:39:55;;;;;;;5.23;2.90;;;2.90;85.30;;;;;;6317217;28;20249;-59
2022/01/05 02:42:57;;;;;;;3.13;2.27;;;3.00;85.50;;;;;;6324099;28;20230;-59
2022/01/05 02:45:57;;;;;;;5.03;3.20;;;3.00;85.40;;;;;;6325899;28;20211;-59
2022/01/05 02:48:59;;;;;;;3.17;2.60;;;3.00;85.30;;;;;;6350387;28;20187;-58
2022/01/05 02:52:00;;;;;;;3.30;2.37;;;3.00;85.20;;;;;;6349364;28;20201;-59
2022/01/05 02:55:02;;;;;;;3.00;2.70;;;3.10;84.80;;;;;;6343260;28;20202;-59
2022/01/05 02:58:03;;;;;;;3.33;2.37;;;3.00;85.10;;;;;;6351233;28;20196;-58
2022/01/05 03:01:05;;;;;;;4.17;2.60;;;3.10;84.90;;;;;;6351522;28;20211;-58
2022/01/05 03:04:05;;;;;;;2.93;2.20;;;3.00;85.20;;;;;;6340964;28;20192;-59
2022/01/05 03:07:08;;;;;;;4.00;2.30;;;3.00;85.30;;;;;;6325225;28;20219;-59
2022/01/05 03:10:14;;;;;;;2.87;2.60;;;3.00;85.20;;;;;;6366461;28;20270;-59
2022/01/05 03:13:15;;;;;;;3.57;2.53;;;3.00;85.20;;;;;;6367581;27;20194;-59
2022/01/05 03:16:16;;;;;;;3.20;2.50;;;3.00;85.30;;;;;;6340638;28;20282;-59
2022/01/05 03:19:16;;;;;;;2.90;2.50;;;2.90;85.30;;;;;;6324301;28;20243;-59
2022/01/05 03:22:17;;;;;;;2.93;2.30;;;2.90;85.60;;;;;;6340253;28;20187;-59
2022/01/05 03:25:19;;;;;;;3.13;2.27;;;2.80;85.50;;;;;;6324955;28;20195;-58
2022/01/05 03:28:20;;;;;;;3.40;2.80;;;2.80;85.60;;;;;;6324110;28;20211;-58
2022/01/05 03:31:21;;;;;;;3.40;2.20;;;2.80;85.80;;;;;;6317402;28;20192;-58
2022/01/05 03:34:22;;;;;;;3.47;2.40;;;2.90;85.60;;;;;;6306381;28;20206;-59
2022/01/05 03:37:23;;;;;;;3.87;2.57;;;2.90;85.70;;;;;;6322756;28;20199;-59
2022/01/05 03:40:24;;;;;;;3.07;2.57;;;2.90;85.60;;;;;;6291544;28;20223;-59
2022/01/05 03:43:25;;;;;;;2.73;2.47;;;2.90;85.60;;;;;;6318446;28;20198;-58
2022/01/05 03:46:25;;;;;;;3.00;2.10;;;2.80;85.60;;;;;;6332969;28;20188;-59
2022/01/05 03:49:26;;;;;;;2.93;2.40;;;2.80;85.60;;;;;;6332871;28;20203;-59
2022/01/05 03:52:27;;;;;;;3.30;2.50;;;2.70;85.50;;;;;;6348763;28;20645;-59
2022/01/05 03:55:28;;;;;;;9.33;2.67;;;2.70;85.80;;;;;;6349083;28;20311;-59
2022/01/05 03:58:29;;;;;;;3.07;2.43;;;2.70;86.00;;;;;;6347783;28;20225;-59
2022/01/05 04:01:29;;;;;;;4.00;2.53;;;2.70;85.90;;;;;;6331590;28;20211;-59
2022/01/05 04:04:30;;;;;;;3.13;2.30;;;2.70;85.90;;;;;;6331373;28;20212;-60
2022/01/05 04:07:31;;;;;;;4.50;2.50;;;2.70;85.60;;;;;;6331186;28;20184;-59
2022/01/05 04:10:32;;;;;;;4.30;2.40;;;2.70;85.60;;;;;;6297891;28;20219;-59
2022/01/05 04:13:33;;;;;;;3.20;2.37;;;2.70;85.60;;;;;;6322689;28;20271;-59
2022/01/05 04:16:33;;;;;;;5.17;2.13;;;2.80;85.70;;;;;;6296798;28;20184;-59
2022/01/05 04:19:35;;;;;;;3.37;2.57;;;2.80;85.70;;;;;;6331935;28;20284;-59
2022/01/05 04:22:36;;;;;;;4.03;2.80;;;2.80;86.00;;;;;;6298606;28;20183;-59
2022/01/05 04:25:37;;;;;;;5.13;3.10;;;2.80;86.00;;;;;;6331728;27;20224;-59
2022/01/05 04:28:38;;;;;;;2.53;2.33;;;2.80;85.80;;;;;;6298195;28;20320;-59
2022/01/05 04:31:38;;;;;;;5.10;2.87;;;2.80;86.00;;;;;;6291346;28;20185;-59
2022/01/05 04:34:39;;;;;;;3.70;2.23;;;2.80;85.70;;;;;;6288773;28;20184;-59
2022/01/05 04:37:41;;;;;;;3.83;2.30;;;2.80;85.90;;;;;;6327371;28;20213;-59
2022/01/05 04:40:44;;;;;;;5.70;2.13;;;2.70;85.60;;;;;;6297793;28;20302;-60
2022/01/05 04:43:45;;;;;;;3.13;2.83;;;2.70;85.90;;;;;;6346170;28;20236;-60
2022/01/05 04:46:46;;;;;;;4.10;3.07;;;2.70;85.80;;;;;;6295519;28;20196;-60
2022/01/05 04:49:47;;;;;;;3.97;2.43;;;2.60;85.80;;;;;;6329916;28;20217;-59
2022/01/05 04:52:47;;;;;;;3.07;2.53;;;2.60;85.70;;;;;;6331673;28;20198;-60
2022/01/05 04:55:48;;;;;;;2.93;2.37;;;2.60;85.80;;;;;;6310132;28;20189;-60
2022/01/05 04:58:49;;;;;;;3.37;2.27;;;2.50;86.10;;;;;;6324946;28;20209;-60
2022/01/05 05:01:50;;;;;;;4.43;2.70;;;2.50;86.20;;;;;;6331707;28;20187;-60
2022/01/05 05:04:51;;;;;;;2.63;2.43;;;2.50;86.20;;;;;;6331744;28;20178;-60
2022/01/05 05:07:52;;;;;;;4.17;2.53;;;2.50;86.30;;;;;;6331386;28;20223;-60
2022/01/05 05:10:52;;;;;;;4.97;2.67;;;2.50;86.30;;;;;;6324604;28;20203;-60
2022/01/05 05:13:53;;;;;;;3.73;2.40;;;2.60;86.20;;;;;;6287951;28;20215;-60
2022/01/05 05:16:54;;;;;;;3.07;1.97;;;2.50;86.20;;;;;;6276348;28;20295;-60
2022/01/05 05:19:55;;;;;;;2.27;2.07;;;2.50;86.40;;;;;;6306127;28;20258;-59
2022/01/05 05:22:56;;;;;;;2.30;1.93;;;2.60;86.40;;;;;;6295260;28;20199;-60
2022/01/05 05:25:56;;;;;;;2.87;2.10;;;2.60;86.30;;;;;;6326057;28;20223;-60
2022/01/05 05:28:57;;;;;;;2.47;2.20;;;2.60;86.40;;;;;;6318100;28;20219;-60
2022/01/05 05:31:58;;;;;;;2.97;2.10;;;2.60;86.30;;;;;;6295252;28;20244;-60
2022/01/05 05:34:59;;;;;;;3.57;2.57;;;2.70;86.00;;;;;;6329999;28;20195;-59
2022/01/05 05:38:00;;;;;;;4.20;2.43;;;2.70;86.10;;;;;;6316845;28;20189;-60
2022/01/05 05:41:01;;;;;;;3.80;2.37;;;2.80;86.00;;;;;;6322634;28;20229;-60
2022/01/05 05:44:02;;;;;;;3.37;2.60;;;2.80;85.80;;;;;;6315904;28;20643;-60
2022/01/05 05:47:05;;;;;;;4.27;2.40;;;2.80;85.60;;;;;;6304240;28;20438;-59
2022/01/05 05:50:07;;;;;;;6.67;2.53;;;2.60;85.70;;;;;;6346084;28;20202;-59
2022/01/05 05:53:07;;;;;;;4.20;2.57;;;2.60;85.90;;;;;;6296404;28;20216;-60
2022/01/05 05:56:08;;;;;;;3.40;2.70;;;2.50;86.00;;;;;;6277570;28;20204;-60
2022/01/05 05:59:09;;;;;;;5.23;3.07;;;2.50;86.00;;;;;;6303594;28;20746;-59
2022/01/05 06:02:10;;;;;;;3.67;2.17;;;2.50;86.00;;;;;;6311867;28;20191;-60
2022/01/05 06:05:11;;;;;;;2.67;1.97;;;2.40;86.20;;;;;;6304618;28;20227;-60
2022/01/05 06:08:11;;;;;;;3.80;2.20;;;2.40;86.40;;;;;;6294641;28;20201;-60
2022/01/05 06:11:12;;;;;;;2.60;2.00;;;2.50;86.40;;;;;;6295584;28;20193;-60
2022/01/05 06:14:13;;;;;;;1.97;1.80;;;2.60;86.50;;;;;;6329850;28;20187;-60
2022/01/05 06:17:14;;;;;;;2.70;2.20;;;2.50;86.50;;;;;;6280930;28;20199;-60
2022/01/05 06:20:15;;;;;;;2.70;2.07;;;2.50;86.60;;;;;;6304452;28;20241;-60
2022/01/05 06:23:16;;;;;;;2.63;1.83;;;2.50;86.70;;;;;;6304825;28;20184;-60
2022/01/05 06:26:17;;;;;;;2.43;1.80;;;2.60;86.90;;;;;;6303455;28;20199;-60
2022/01/05 06:29:18;;;;;;;2.07;1.87;;;2.70;87.20;;;;;;6311789;28;20579;-59
2022/01/05 06:32:19;;;;;;;2.33;1.90;;;2.80;87.10;;;;;;6303087;28;20192;-59
2022/01/05 06:35:23;;;;;;;2.83;2.33;;;2.90;86.90;;;;;;6302860;28;20198;-59
2022/01/05 06:38:24;;;;;;;2.57;1.90;;;3.10;87.00;;;;;;6306825;28;20248;-59
2022/01/05 06:41:25;;;;;;;1.93;1.77;;;3.20;87.10;;;;;;6303407;28;20227;-60
2022/01/05 06:44:25;;;;;;;2.77;1.83;;;3.30;87.10;;;;;;6303203;28;20193;-60
2022/01/05 06:47:26;;;;;;;2.13;1.67;;;3.40;87.00;;;;;;6285471;28;20200;-60
2022/01/05 06:50:27;;;;;;;3.27;2.30;;;3.50;86.80;;;;;;6304597;28;20192;-60
2022/01/05 06:53:28;;;;;;;3.13;2.03;;;3.50;86.30;;;;;;6303005;28;20199;-60
2022/01/05 06:56:29;;;;;;;2.87;2.23;;;3.60;86.10;;;;;;6317548;28;20666;-60
2022/01/05 06:59:29;;;;;;;5.07;2.30;;;3.60;86.00;;;;;;6307901;28;20337;-59
2022/01/05 07:02:30;;;;;;;2.80;2.10;;;3.70;85.90;;;;;;6329725;28;20184;-60
2022/01/05 07:05:31;;;;;;;4.37;2.10;;;3.80;86.00;;;;;;6329138;28;20195;-60
2022/01/05 07:08:32;;;;;;;4.70;4.20;;;3.80;86.10;;;;;;6332222;28;20225;-59
2022/01/05 07:11:33;;;;;;;4.70;3.77;;;3.80;86.00;;;;;;6315439;28;20188;-59
2022/01/05 07:14:34;;;;;;;4.03;3.03;;;3.90;85.90;;;;;;6334377;28;20201;-60
2022/01/05 07:17:35;;;;;;;2.87;2.57;;;3.90;85.60;;;;;;6332195;28;20198;-60
2022/01/05 07:20:36;;;;;;;4.27;2.97;;;3.90;85.60;;;;;;6306977;28;20240;-60
2022/01/05 07:23:37;;;;;;;2.83;2.57;;;4.00;85.60;;;;;;6307607;28;20264;-60
2022/01/05 07:26:39;;;;;;;3.77;2.50;;;4.00;85.60;;;;;;6307879;28;20192;-60
2022/01/05 07:29:40;;;;;;;3.73;2.50;;;4.10;85.60;;;;;;6326363;28;20202;-59
2022/01/05 07:32:41;;;;;;;2.97;2.67;;;4.10;85.60;;;;;;6330986;28;20191;-60
2022/01/05 07:35:42;;;;;;;2.63;2.20;;;4.20;85.70;;;;;;6348972;28;20193;-60
2022/01/05 07:38:43;;;;;;;2.30;2.10;;;4.20;85.70;;;;;;6287150;28;20207;-59
2022/01/05 07:41:44;;;;;;;3.00;2.37;;;4.30;85.80;;;;;;6307182;28;20227;-60
2022/01/05 07:44:45;;;;;;;3.03;2.40;;;4.40;85.70;;;;;;6306339;28;20286;-60
2022/01/05 07:47:45;;;;;;;2.27;2.07;;;4.50;85.70;;;;;;6307307;28;20195;-60
2022/01/05 07:50:46;;;;;;;3.23;2.40;;;4.60;85.50;;;;;;6307836;28;20191;-60
2022/01/05 07:53:47;;;;;;;3.27;2.60;;;4.80;85.40;;;;;;6307798;28;20193;-60
2022/01/05 07:56:48;;;;;;;3.67;2.67;;;4.80;85.60;;;;;;6308861;28;20195;-60
2022/01/05 07:59:49;;;;;;;5.03;2.73;;;5.00;84.80;;;;;;6333018;28;20215;-60
2022/01/05 08:02:50;;;;;;;3.60;3.30;;;5.10;84.50;;;;;;6326140;28;20211;-60
2022/01/05 08:05:50;;;;;;;3.17;2.80;;;5.20;84.20;;;;;;6273618;28;20192;-59
2022/01/05 08:08:51;;;;;;;6.00;4.20;;;5.20;84.20;;;;;;6291013;28;20203;-60
2022/01/05 08:11:52;;;;;;;5.77;3.93;;;5.30;83.90;;;;;;6332060;28;20199;-59
2022/01/05 08:14:53;;;;;;;3.60;2.90;;;5.40;83.60;;;;;;6331825;28;20202;-60
2022/01/05 08:17:54;;;;;;;3.40;2.73;;;5.40;83.20;;;;;;6298258;28;20191;-60
2022/01/05 08:20:55;;;;;;;5.43;3.13;;;5.50;83.40;;;;;;6319231;28;20711;-59
2022/01/05 08:23:55;;;;;;;3.13;2.83;;;5.50;82.70;;;;;;6307192;28;20273;-60
2022/01/05 08:26:56;;;;;;;3.83;2.90;;;5.60;82.80;;;;;;6326722;28;20189;-60
2022/01/05 08:29:59;;;;;;;5.33;3.00;;;5.80;82.80;;;;;;6344920;28;20289;-60
2022/01/05 08:33:03;;;;;;;4.33;3.13;;;5.90;82.10;;;;;;6305367;28;20606;-60
2022/01/05 08:36:04;;;;;;;4.50;3.20;;;6.00;82.10;;;;;;6309892;28;20204;-60
2022/01/05 08:39:05;;;;;;;5.80;3.27;;;6.10;82.20;;;;;;6286944;28;20200;-60
2022/01/05 08:42:06;;;;;;;4.47;3.23;;;6.20;81.80;;;;;;6288857;28;20179;-60
2022/01/05 08:45:07;;;;;;;3.27;2.97;;;6.20;81.30;;;;;;6305064;28;20530;-60
2022/01/05 08:48:10;;;;;;;3.40;2.93;;;6.20;81.20;;;;;;6296440;28;20321;-60
2022/01/05 08:51:11;;;;;;;3.90;3.10;;;6.20;81.00;;;;;;6330177;28;20183;-59
2022/01/05 08:54:12;;;;;;;5.27;3.27;;;6.20;81.00;;;;;;6329590;28;20195;-59
2022/01/05 08:57:12;;;;;;;4.23;3.17;;;6.20;81.30;;;;;;6284027;28;20204;-60
2022/01/05 09:00:14;;;;;;;6.20;3.63;;;6.30;81.30;;;;;;6331487;28;20234;-60
2022/01/05 09:03:16;;;;;;;5.03;4.03;;;6.30;81.10;;;;;;6348642;28;20187;-60
2022/01/05 09:06:18;;;;;;;4.30;3.30;;;6.30;81.20;;;;;;6331374;28;20722;-60
2022/01/05 09:09:18;;;;;;;5.03;3.80;;;6.30;81.40;;;;;;6296746;28;20224;-59
2022/01/05 09:12:19;;;;;;;5.57;3.83;;;6.40;82.10;;;;;;6294148;28;20184;-60
2022/01/05 09:15:20;;;;;;;5.50;3.60;;;6.40;82.70;;;;;;6305305;28;20678;-60
2022/01/05 09:18:21;;;;;;;5.00;3.53;;;6.30;83.60;;;;;;6306006;28;20199;-60
2022/01/05 09:21:22;;;;;;;5.03;3.80;;;6.30;84.40;;;;;;6318280;28;20293;-59
2022/01/05 09:24:25;;;;;;;6.40;4.03;;;6.20;85.40;;;;;;6330521;28;20268;-60
2022/01/05 09:27:25;;;;;;;6.10;4.30;;;6.10;86.20;;;;;;6297719;28;20188;-60
2022/01/05 09:30:27;;;;;;;4.93;3.73;;;6.00;87.00;;;;;;6294780;28;20242;-60
2022/01/05 09:33:27;;;;;;;2.17;1.83;;;6.00;87.40;;;;;;6287910;28;20211;-60
2022/01/05 09:36:40;;;;;;;1.90;1.50;;;6.20;87.20;;;;;;6288159;28;20192;-60
2022/01/05 09:43:04;;;;;;;1.67;0.80;;;6.40;88.10;;;;;;6289485;28;20280;-60
2022/01/05 09:46:16;;;;;;;1.30;1.10;;;6.50;87.10;;;;;;6320786;28;20538;-60
2022/01/05 09:49:33;;;;;;;1.10;0.60;;;6.60;86.30;;;;;;6341651;28;20197;-60
2022/01/05 09:52:35;;;;;;;1.20;0.87;;;6.60;86.90;;;;;;6328828;28;20210;-60
2022/01/05 09:55:36;;;;;;;0.83;0.83;;;6.60;86.80;;;;;;6286733;28;20200;-61
2022/01/05 09:58:40;;;;;;;0.83;0.53;;;6.60;86.50;;;;;;6289102;28;20190;-60
2022/01/05 10:01:40;;;;;;;2.40;0.70;;;6.60;86.00;;;;;;6343406;28;20292;-60
2022/01/05 10:04:43;;;;;;;1.43;0.63;;;6.50;85.70;;;;;;6303485;28;20191;-60
2022/01/05 10:07:44;;;;;;;0.53;0.53;;;6.50;85.50;;;;;;6320478;28;20187;-60
2022/01/05 10:10:45;;;;;;;0.80;0.77;;;6.40;86.50;;;;;;6304033;28;20193;-59
2022/01/05 10:13:46;;;;;;;1.30;0.80;;;6.40;85.90;;;;;;6305146;28;20217;-60
2022/01/05 10:17:21;;;;;;;0.70;0.50;;;6.40;85.80;;;;;;6315059;28;20206;-60
2022/01/05 10:20:22;;;;;;;0.30;0.30;;;6.40;85.80;;;;;;6327419;28;20236;-60
2022/01/05 10:23:39;;;;;;;0.43;0.43;;;6.30;85.70;;;;;;6328842;28;20209;-60
2022/01/05 10:26:40;;;;;;;0.67;0.67;;;6.30;86.20;;;;;;6344814;28;20184;-60
2022/01/05 10:29:51;;;;;;;0.50;0.33;;;6.30;86.00;;;;;;6327260;28;20192;-59
2022/01/05 10:32:54;;;;;;;1.70;0.97;;;6.30;86.10;;;;;;6319629;28;20196;-60
2022/01/05 10:35:56;;;;;;;0.50;0.50;;;6.30;86.90;;;;;;6321991;28;20303;-60
2022/01/05 10:38:58;;;;;;;0.50;0.50;;;6.20;87.40;;;;;;6316083;28;20220;-60
2022/01/05 10:42:05;;;;;;;0.60;0.60;;;6.20;87.60;;;;;;6305117;28;20217;-60
2022/01/05 10:45:08;;;;;;;0.80;0.60;;;6.10;88.30;;;;;;6292397;28;20217;-60
2022/01/05 10:48:12;;;;;;;0.80;0.63;;;6.10;88.80;;;;;;6322415;28;20220;-61
2022/01/05 10:51:13;;;;;;;1.33;1.07;;;6.10;89.30;;;;;;6326824;28;20223;-60
2022/01/05 10:54:19;;;;;;;1.20;0.70;;;6.20;88.40;;;;;;6309514;28;20188;-60
2022/01/05 10:57:20;;;;;;;0.80;0.60;;;6.20;88.20;;;;;;6338151;28;20243;-61
2022/01/05 11:00:36;;;;;;;0.70;0.50;;;6.10;89.00;;;;;;6300202;28;20219;-61
2022/01/05 11:03:41;;;;;;;2.30;0.60;;;6.10;89.30;;;;;;6316104;28;20192;-61
2022/01/05 11:06:59;;;;;;;0.83;0.40;;;6.10;89.30;;;;;;6328554;28;20192;-61
2022/01/05 11:10:05;;;;;;;0.33;0.33;;;6.10;89.20;;;;;;6309173;28;20189;-60
2022/01/05 11:13:06;;;;;;;0.77;0.53;;;6.00;89.60;;;;;;6342143;28;20260;-61
2022/01/05 11:16:07;;;;;;;0.30;0.30;;;6.10;89.30;;;;;;6308277;28;20195;-61
2022/01/05 11:19:19;;;;;;;0.53;0.53;;;6.00;89.70;;;;;;6307173;28;20238;-61
2022/01/05 11:22:20;;;;;;;0.73;0.60;;;6.00;90.10;;;;;;6333802;28;20196;-61
2022/01/05 11:25:21;;;;;;;0.70;0.50;;;6.00;90.00;;;;;;6308067;28;20191;-61
2022/01/05 11:28:24;;;;;;;0.60;0.60;;;5.90;90.10;;;;;;6367870;27;20187;-61
2022/01/05 11:31:25;;;;;;;2.30;0.70;;;6.00;90.30;;;;;;6306769;28;20535;-61
2022/01/05 11:34:29;;;;;;;1.90;0.80;;;5.90;90.20;;;;;;6291221;28;20198;-61
2022/01/05 11:37:30;;;;;;;1.13;0.87;;;6.00;90.50;;;;;;6303892;28;20220;-60
2022/01/05 11:40:33;;;;;;;0.87;0.87;;;6.00;90.10;;;;;;6291587;28;20220;-61
2022/01/05 11:43:40;;;;;;;0.60;0.60;;;6.10;89.20;;;;;;6291771;28;20263;-61
2022/01/05 11:46:45;;;;;;;1.20;0.50;;;6.00;89.30;;;;;;6301984;28;20199;-61
2022/01/05 11:49:46;;;;;;;0.50;0.50;;;6.10;89.10;;;;;;6346693;28;20188;-61
2022/01/05 11:53:03;;;;;;;1.27;0.60;;;6.10;89.10;;;;;;6299481;28;20201;-61
2022/01/05 11:56:07;;;;;;;0.87;0.60;;;6.10;88.20;;;;;;6350351;28;20203;-61
2022/01/05 11:59:37;;;;;;;0.63;0.63;;;6.10;87.70;;;;;;6305298;28;20180;-61
2022/01/05 12:02:40;;;;;;;0.60;0.50;;;6.10;87.40;;;;;;6293432;28;20186;-61
2022/01/05 12:06:06;;;;;;;0.50;0.50;;;6.10;88.30;;;;;;6323084;28;20189;-61
2022/01/05 12:09:28;;;;;;;0.80;0.80;;;6.10;88.60;;;;;;6330106;28;20221;-61
2022/01/05 12:12:31;;;;;;;0.50;0.50;;;6.10;88.60;;;;;;6307328;28;20192;-61
2022/01/05 12:15:44;;;;;;;1.27;0.73;;;6.10;87.70;;;;;;6306799;28;20199;-61
2022/01/05 12:19:03;;;;;;;0.60;0.50;;;6.20;88.40;;;;;;6341380;28;20247;-61
2022/01/05 12:22:25;;;;;;;0.80;0.60;;;6.10;88.30;;;;;;6349073;28;20218;-61
2022/01/05 12:25:27;;;;;;;1.90;1.13;;;6.10;87.50;;;;;;6341222;28;20189;-61
2022/01/05 12:28:32;;;;;;;0.57;0.50;;;6.10;88.20;;;;;;6317466;28;20301;-61
2022/01/05 12:31:54;;;;;;;1.30;0.70;;;6.10;87.80;;;;;;6301216;28;20240;-61
2022/01/05 12:34:58;;;;;;;1.00;0.90;;;6.10;88.10;;;;;;6347721;28;20191;-61
2022/01/05 12:38:06;;;;;;;1.57;0.90;;;6.20;88.20;;;;;;6348618;28;20215;-61
2022/01/05 12:41:36;;;;;;;1.40;0.90;;;6.20;88.10;;;;;;6348098;28;20223;-61
2022/01/05 12:44:37;;;;;;;0.87;0.63;;;6.20;88.00;;;;;;6309452;28;20191;-61
2022/01/05 12:47:38;;;;;;;0.70;0.70;;;6.30;85.90;;;;;;6333506;27;20194;-61
2022/01/05 12:50:39;;;;;;;0.90;0.70;;;6.20;86.00;;;;;;6331077;28;20192;-61
2022/01/05 12:54:01;;;;;;;1.50;1.07;;;6.20;86.80;;;;;;6332324;28;20199;-61
2022/01/05 12:57:09;;;;;;;1.07;0.93;;;6.20;87.50;;;;;;6304216;28;20208;-61
2022/01/05 13:00:10;;;;;;;1.57;0.77;;;6.20;86.80;;;;;;6298983;28;20312;-62
2022/01/05 13:03:32;;;;;;;1.87;0.90;;;6.30;85.40;;;;;;6306577;28;20191;-61
2022/01/05 13:06:33;;;;;;;0.83;0.57;;;6.30;86.80;;;;;;6323513;28;20185;-61
2022/01/05 13:09:39;;;;;;;0.97;0.70;;;6.20;87.10;;;;;;6306239;28;20192;-60
2022/01/05 13:12:39;;;;;;;1.83;0.70;;;6.20;86.40;;;;;;6322988;28;20188;-61
2022/01/05 13:15:40;;;;;;;2.17;0.80;;;6.20;85.80;;;;;;6311302;28;20223;-61
2022/01/05 13:18:48;;;;;;;1.33;0.80;;;6.20;86.50;;;;;;6305320;28;20185;-60
2022/01/05 13:21:50;;;;;;;1.83;0.70;;;6.30;85.60;;;;;;6290117;28;20229;-61
2022/01/05 13:25:06;;;;;;;2.70;1.17;;;6.30;86.70;;;;;;6338357;28;20191;-61
2022/01/05 13:28:08;;;;;;;2.00;1.00;;;6.30;87.60;;;;;;6313235;28;20183;-61
2022/01/05 13:31:09;;;;;;;1.37;0.97;;;6.30;85.60;;;;;;6293701;28;20184;-61
2022/01/05 13:34:10;;;;;;;1.43;0.87;;;6.30;86.40;;;;;;6303969;28;20195;-60
2022/01/05 13:37:12;;;;;;;1.07;0.97;;;6.30;87.80;;;;;;6315208;28;20192;-61
2022/01/05 13:40:22;;;;;;;1.00;0.87;;;6.40;88.80;;;;;;6313092;28;20685;-62
2022/01/05 13:43:25;;;;;;;1.13;1.00;;;6.40;89.20;;;;;;6303416;28;20208;-60
2022/01/05 13:46:26;;;;;;;2.17;1.23;;;6.40;89.30;;;;;;6307905;28;20187;-60
2022/01/05 13:49:26;;;;;;;1.40;1.10;;;6.40;87.60;;;;;;6328724;28;20230;-61
2022/01/05 13:52:29;;;;;;;1.33;0.90;;;6.30;87.20;;;;;;6329647;28;20218;-60
2022/01/05 13:55:39;;;;;;;2.27;1.30;;;6.30;85.80;;;;;;6326325;28;20238;-60
2022/01/05 13:58:41;;;;;;;1.73;1.20;;;6.20;85.50;;;;;;6304999;28;20177;-61
2022/01/05 14:01:56;;;;;;;1.93;1.20;;;6.20;86.90;;;;;;6311561;28;20249;-61
2022/01/05 14:04:59;;;;;;;1.43;1.33;;;6.10;87.90;;;;;;6345095;28;20184;-60
2022/01/05 14:08:06;;;;;;;4.47;1.70;;;6.10;88.30;;;;;;6312206;28;20187;-61
2022/01/05 14:11:16;;;;;;;2.57;1.50;;;6.10;88.80;;;;;;6345906;28;20205;-60
2022/01/05 14:14:16;;;;;;;1.90;1.30;;;6.10;88.80;;;;;;6345133;28;20192;-61
2022/01/05 14:17:17;;;;;;;4.20;1.40;;;6.10;89.40;;;;;;6319555;28;20202;-61
2022/01/05 14:20:21;;;;;;;4.33;1.93;;;6.10;89.80;;;;;;6270154;28;20238;-60
2022/01/05 14:23:21;;;;;;;5.73;3.23;;;6.10;90.00;;;;;;6315731;28;20196;-61
2022/01/05 14:26:28;;;;;;;10.77;5.00;;;6.10;90.20;;;;;;6304019;28;20217;-60
2022/01/05 14:29:29;;;;;;;14.77;7.00;;;6.10;90.40;;;;;;6339976;28;20187;-61
2022/01/05 14:32:35;;;;;;;19.27;8.30;;;6.10;90.50;;;;;;6308442;28;20282;-61
2022/01/05 14:35:36;;;;;;;13.20;6.40;;;6.10;90.70;;;;;;6296576;28;20187;-61
2022/01/05 14:38:51;;;;;;;9.03;5.03;;;6.10;90.80;;;;;;6327352;28;20194;-61
2022/01/05 14:42:01;;;;;;;12.13;4.90;;;6.10;91.10;;;;;;6328993;28;20215;-61
2022/01/05 14:45:03;;;;;;;7.57;4.00;;;6.10;91.20;;;;;;6286278;28;20216;-61
2022/01/05 14:48:04;;;;;;;6.63;3.60;;;6.10;91.30;;;;;;6323134;28;20192;-61
2022/01/05 14:51:05;;;;;;;6.33;4.13;;;6.10;91.40;;;;;;6295474;28;20206;-61
2022/01/05 14:54:06;;;;;;;6.20;4.30;;;6.10;91.50;;;;;;6325825;28;20196;-61
2022/01/05 14:57:11;;;;;;;4.43;3.60;;;6.10;91.50;;;;;;6320477;28;20429;-60
2022/01/05 15:00:15;;;;;;;6.47;3.53;;;6.00;91.60;;;;;;6320572;28;20220;-61
2022/01/05 15:03:15;;;;;;;8.03;4.23;;;6.00;91.70;;;;;;6312002;28;20261;-60
2022/01/05 15:06:16;;;;;;;7.50;4.40;;;6.00;91.70;;;;;;6328504;28;20658;-60
2022/01/05 15:09:17;;;;;;;4.53;3.80;;;6.00;91.70;;;;;;6327470;28;20202;-61
2022/01/05 15:12:18;;;;;;;4.70;4.03;;;6.00;91.80;;;;;;6329943;28;20794;-61
2022/01/05 15:15:19;;;;;;;6.13;3.90;;;5.90;91.80;;;;;;6346566;28;20205;-60
2022/01/05 15:18:20;;;;;;;5.80;3.40;;;5.90;91.80;;;;;;6319574;28;20192;-60
2022/01/05 15:21:21;;;;;;;6.00;4.13;;;5.80;91.80;;;;;;6269242;28;20316;-61
2022/01/05 15:24:21;;;;;;;4.87;3.40;;;5.80;91.80;;;;;;6301436;28;20195;-61
2022/01/05 15:27:22;;;;;;;6.17;3.63;;;5.80;91.90;;;;;;6304402;28;20283;-60
2022/01/05 15:30:23;;;;;;;6.93;4.07;;;5.80;92.00;;;;;;6315460;28;20236;-60
2022/01/05 15:33:24;;;;;;;6.00;3.23;;;5.80;92.10;;;;;;6295998;28;20191;-61
2022/01/05 15:36:25;;;;;;;4.00;3.53;;;5.80;92.10;;;;;;6307728;28;20203;-60
2022/01/05 15:39:26;;;;;;;4.97;3.07;;;5.80;92.10;;;;;;6325482;28;20196;-61
2022/01/05 15:42:27;;;;;;;4.80;3.23;;;5.80;92.20;;;;;;6319528;28;20287;-62
2022/01/05 15:45:29;;;;;;;6.30;3.90;;;5.70;92.20;;;;;;6306771;28;20191;-61
2022/01/05 15:48:30;;;;;;;5.23;3.90;;;5.70;92.30;;;;;;6325984;28;20191;-61
2022/01/05 15:51:31;;;;;;;4.63;4.23;;;5.80;92.10;;;;;;6309514;28;20188;-61
2022/01/05 15:54:34;;;;;;;4.60;4.10;;;5.80;91.90;;;;;;6314951;28;20297;-61
2022/01/05 16:04:05;;;;;;;4.93;4.27;;;5.70;92.30;;;;;;6309082;28;20212;-61
2022/01/05 16:07:06;;;;;;;4.27;3.80;;;5.60;92.20;;;;;;6309970;28;20184;-59
2022/01/05 16:10:08;;;;;;;2.90;2.67;;;5.60;92.40;;;;;;6292712;28;20180;-60
2022/01/05 16:13:09;;;;;;;5.83;3.60;;;5.60;92.50;;;;;;6295831;28;20187;-61
2022/01/05 16:16:10;;;;;;;2.97;2.67;;;5.70;92.00;;;;;;6333850;28;20282;-61
2022/01/05 16:19:11;;;;;;;3.93;3.10;;;5.60;91.60;;;;;;6300074;28;20230;-60